createdAt,value
2018-12-17T00:00:48.940Z,-3.35
2018-12-17T00:03:18.075Z,-3.36
2018-12-17T00:05:51.936Z,-3.39
2018-12-17T00:08:20.408Z,-3.59
2018-12-17T00:10:51.164Z,-3.43
2018-12-17T00:13:19.922Z,-3.44
2018-12-17T00:15:54.827Z,-3.45
2018-12-17T00:18:30.724Z,-3.43
2018-12-17T00:21:01.570Z,-3.43
2018-12-17T00:23:49.442Z,-3.43
2018-12-17T00:26:36.173Z,-3.44
2018-12-17T00:29:05.537Z,-3.45
2018-12-17T00:31:54.938Z,-3.48
2018-12-17T00:34:28.028Z,-3.52
2018-12-17T00:36:57.896Z,-3.57
2018-12-17T00:39:26.383Z,-3.57
2018-12-17T00:41:57.159Z,-3.59
2018-12-17T00:44:27.497Z,-3.60
2018-12-17T00:47:12.694Z,-3.60
2018-12-17T00:49:44.583Z,-3.66
2018-12-17T00:55:07.727Z,-3.71
2018-12-17T00:57:36.422Z,-3.74
2018-12-17T01:00:07.578Z,-3.74
2018-12-17T01:02:40.633Z,-3.76
2018-12-17T01:05:09.114Z,-3.77
2018-12-17T01:07:38.217Z,-3.79
2018-12-17T01:10:07.763Z,-3.81
2018-12-17T01:12:55.468Z,-3.80
2018-12-17T01:15:23.990Z,-3.81
2018-12-17T01:18:01.694Z,-3.78
2018-12-17T01:20:30.160Z,-3.81
2018-12-17T01:22:58.579Z,-3.82
2018-12-17T01:25:27.775Z,-3.84
2018-12-17T01:27:57.427Z,-3.87
2018-12-17T01:30:31.177Z,-3.89
2018-12-17T01:33:01.363Z,-3.89
2018-12-17T01:38:26.047Z,-3.99
2018-12-17T01:40:56.150Z,-4.04
2018-12-17T01:43:24.831Z,-4.07
2018-12-17T01:45:53.304Z,-4.08
2018-12-17T01:48:21.731Z,-4.10
2018-12-17T01:50:50.325Z,-4.14
2018-12-17T01:53:19.086Z,-4.15
2018-12-17T01:55:47.601Z,-4.20
2018-12-17T01:58:16.775Z,-4.21
2018-12-17T02:00:45.278Z,-4.21
2018-12-17T02:03:19.068Z,-4.20
2018-12-17T02:05:48.200Z,-4.18
2018-12-17T02:08:17.353Z,-4.14
2018-12-17T02:10:46.246Z,-4.16
2018-12-17T02:13:19.867Z,-4.14
2018-12-17T02:15:48.366Z,-4.14
2018-12-17T02:18:18.733Z,-4.20
2018-12-17T02:20:48.494Z,-4.20
2018-12-17T02:23:18.186Z,-4.21
2018-12-17T02:25:51.875Z,-4.22
2018-12-17T02:28:35.962Z,-4.22
2018-12-17T02:31:02.382Z,-4.22
2018-12-17T02:33:31.624Z,-4.22
2018-12-17T02:36:00.654Z,-4.24
2018-12-17T02:38:29.404Z,-4.26
2018-12-17T02:40:58.661Z,-4.29
2018-12-17T02:46:24.280Z,-4.32
2018-12-17T02:48:52.806Z,-4.34
2018-12-17T02:51:25.604Z,-4.41
2018-12-17T02:53:58.725Z,-4.35
2018-12-17T02:56:30.514Z,-4.35
2018-12-17T02:58:59.031Z,-4.35
2018-12-17T03:01:31.416Z,-4.32
2018-12-17T03:04:13.454Z,-4.31
2018-12-17T03:06:53.292Z,-4.27
2018-12-17T03:09:34.460Z,-4.27
2018-12-17T03:12:09.775Z,-4.31
2018-12-17T03:14:38.480Z,-4.27
2018-12-17T03:17:06.920Z,-4.39
2018-12-17T03:19:53.544Z,-4.33
2018-12-17T03:22:24.806Z,-4.35
2018-12-17T03:24:58.727Z,-4.30
2018-12-17T03:27:32.928Z,-4.28
2018-12-17T03:30:04.377Z,-4.25
2018-12-17T03:32:40.377Z,-4.22
2018-12-17T03:35:08.846Z,-4.23
2018-12-17T03:37:43.030Z,-4.23
2018-12-17T03:43:05.505Z,-4.22
2018-12-17T03:45:34.767Z,-4.21
2018-12-17T03:48:03.206Z,-4.20
2018-12-17T03:50:31.643Z,-4.21
2018-12-17T03:53:00.149Z,-4.21
2018-12-17T03:55:33.969Z,-4.22
2018-12-17T03:58:02.456Z,-4.22
2018-12-17T04:00:32.812Z,-4.23
2018-12-17T04:03:06.716Z,-4.26
2018-12-17T04:05:52.454Z,-4.24
2018-12-17T04:08:20.959Z,-4.12
2018-12-17T04:10:49.662Z,-4.20
2018-12-17T04:13:18.103Z,-4.24
2018-12-17T04:15:46.825Z,-4.26
2018-12-17T04:18:16.487Z,-4.27
2018-12-17T04:20:44.994Z,-4.29
2018-12-17T04:23:13.509Z,-4.30
2018-12-17T04:25:47.331Z,-4.31
2018-12-17T04:28:21.302Z,-4.33
2018-12-17T04:30:54.979Z,-4.31
2018-12-17T04:33:26.277Z,-4.33
2018-12-17T04:35:54.939Z,-4.37
2018-12-17T04:38:23.549Z,-4.44
2018-12-17T04:40:52.039Z,-4.45
2018-12-17T04:43:22.566Z,-4.48
2018-12-17T04:45:55.918Z,-4.50
2018-12-17T04:48:24.648Z,-4.50
2018-12-17T04:50:58.499Z,-4.47
2018-12-17T04:53:27.683Z,-4.47
2018-12-17T04:55:56.128Z,-4.45
2018-12-17T04:58:28.036Z,-4.42
2018-12-17T05:01:01.811Z,-4.41
2018-12-17T05:03:37.041Z,-4.42
2018-12-17T05:06:05.427Z,-4.37
2018-12-17T05:12:03.153Z,-4.34
2018-12-17T05:14:40.290Z,-4.38
2018-12-17T05:17:10.176Z,-4.36
2018-12-17T05:19:39.670Z,-4.36
2018-12-17T05:22:18.929Z,-4.31
2018-12-17T05:24:50.409Z,-4.31
2018-12-17T05:27:41.624Z,-4.31
2018-12-17T05:30:28.718Z,-4.32
2018-12-17T05:32:57.527Z,-4.36
2018-12-17T05:35:26.887Z,-4.39
2018-12-17T05:38:00.723Z,-4.39
2018-12-17T05:40:30.681Z,-4.42
2018-12-17T05:43:04.472Z,-4.41
2018-12-17T05:45:33.701Z,-4.42
2018-12-17T05:48:04.912Z,-4.42
2018-12-17T05:50:35.264Z,-4.39
2018-12-17T05:53:03.720Z,-5.27
2018-12-17T05:58:28.288Z,-4.40
2018-12-17T06:00:57.358Z,-4.39
2018-12-17T06:03:44.052Z,-4.39
2018-12-17T06:06:12.540Z,-4.35
2018-12-17T06:08:41.244Z,-4.38
2018-12-17T06:11:10.156Z,-4.42
2018-12-17T06:13:38.623Z,-4.44
2018-12-17T06:16:13.264Z,-4.46
2018-12-17T06:18:41.863Z,-4.47
2018-12-17T06:21:16.989Z,-4.47
2018-12-17T06:23:49.635Z,-4.46
2018-12-17T06:26:18.581Z,-4.47
2018-12-17T06:28:48.604Z,-4.46
2018-12-17T06:31:22.399Z,-4.43
2018-12-17T06:33:52.571Z,-4.42
2018-12-17T06:36:43.506Z,-4.39
2018-12-17T06:39:12.704Z,-4.40
2018-12-17T06:41:41.159Z,-4.39
2018-12-17T06:44:09.620Z,-4.36
2018-12-17T06:46:45.723Z,-4.32
2018-12-17T06:49:15.053Z,-4.32
2018-12-17T06:51:45.217Z,-4.31
2018-12-17T06:54:14.927Z,-4.21
2018-12-17T06:56:43.412Z,-2.89
2018-12-17T06:59:11.827Z,-2.19
2018-12-17T07:01:40.712Z,-1.81
2018-12-17T07:04:09.213Z,-1.18
2018-12-17T07:06:38.405Z,-0.94
2018-12-17T07:09:07.865Z,-0.72
2018-12-17T07:11:36.387Z,-3.20
2018-12-17T07:14:05.082Z,-1.54
2018-12-17T07:16:35.149Z,-2.09
2018-12-17T07:19:07.739Z,-2.44
2018-12-17T07:21:37.943Z,-2.71
2018-12-17T07:24:08.472Z,-2.89
2018-12-17T07:26:38.224Z,-3.03
2018-12-17T07:29:07.392Z,-3.24
2018-12-17T07:31:58.389Z,-3.28
2018-12-17T07:34:27.692Z,-3.31
2018-12-17T07:36:56.998Z,-3.30
2018-12-17T07:39:29.352Z,-3.34
2018-12-17T07:44:52.480Z,-3.32
2018-12-17T07:47:20.939Z,-3.24
2018-12-17T07:49:49.389Z,-3.14
2018-12-17T07:52:18.321Z,-3.09
2018-12-17T07:54:47.947Z,-2.95
2018-12-17T07:57:21.855Z,-2.83
2018-12-17T08:02:59.891Z,-2.55
2018-12-17T08:05:28.394Z,-2.42
2018-12-17T08:08:00.422Z,-2.14
2018-12-17T08:10:28.830Z,-2.02
2018-12-17T08:13:04.796Z,-1.88
2018-12-17T08:15:40.372Z,-1.79
2018-12-17T08:18:20.483Z,-1.61
2018-12-17T08:20:49.788Z,-1.38
2018-12-17T08:23:18.489Z,-1.27
2018-12-17T08:25:46.963Z,-1.24
2018-12-17T08:28:15.428Z,-1.20
2018-12-17T08:30:43.858Z,-1.19
2018-12-17T08:33:12.610Z,-3.60
2018-12-17T08:35:42.777Z,-1.09
2018-12-17T08:38:11.296Z,-1.03
2018-12-17T08:40:39.787Z,-1.03
2018-12-17T08:43:08.242Z,-1.03
2018-12-17T08:45:36.687Z,-1.01
2018-12-17T08:48:05.202Z,-1.02
2018-12-17T08:50:33.642Z,-1.00
2018-12-17T08:53:02.085Z,-1.06
2018-12-17T08:55:30.749Z,-1.04
2018-12-17T08:57:59.428Z,-1.02
2018-12-17T09:00:27.877Z,-1.02
2018-12-17T09:02:56.331Z,-0.99
2018-12-17T09:05:27.755Z,-1.02
2018-12-17T09:07:56.255Z,-0.98
2018-12-17T09:10:24.755Z,-0.91
2018-12-17T09:12:53.176Z,-0.80
2018-12-17T09:15:21.717Z,-1.18
2018-12-17T09:17:50.415Z,-0.60
2018-12-17T09:20:18.915Z,-0.48
2018-12-17T09:22:47.359Z,-0.30
2018-12-17T09:25:15.901Z,-0.15
2018-12-17T09:27:44.336Z,-0.21
2018-12-17T09:30:18.321Z,0.09
2018-12-17T09:32:43.260Z,0.26
2018-12-17T09:35:11.746Z,0.43
2018-12-17T09:37:40.224Z,0.49
2018-12-17T09:40:08.775Z,0.58
2018-12-17T09:42:37.228Z,0.59
2018-12-17T09:45:06.866Z,0.60
2018-12-17T09:47:35.330Z,0.66
2018-12-17T09:50:05.082Z,0.70
2018-12-17T09:52:33.613Z,0.76
2018-12-17T09:55:02.457Z,0.83
2018-12-17T09:57:31.358Z,0.92
2018-12-17T10:00:00.227Z,0.99
2018-12-17T10:02:29.145Z,0.77
2018-12-17T10:04:57.861Z,0.87
2018-12-17T10:07:30.473Z,0.90
2018-12-17T10:09:56.915Z,0.93
2018-12-17T10:12:25.344Z,1.02
2018-12-17T10:14:53.830Z,1.07
2018-12-17T10:17:22.341Z,1.15
2018-12-17T10:19:50.852Z,1.28
2018-12-17T10:22:19.374Z,1.49
2018-12-17T10:24:47.797Z,1.57
2018-12-17T10:27:16.499Z,1.64
2018-12-17T10:29:45.135Z,1.72
2018-12-17T10:32:13.554Z,1.90
2018-12-17T10:34:42.154Z,1.94
2018-12-17T10:37:11.385Z,1.94
2018-12-17T10:39:39.828Z,1.95
2018-12-17T10:42:08.281Z,2.04
2018-12-17T10:44:36.737Z,2.15
2018-12-17T10:47:05.222Z,2.27
2018-12-17T10:49:33.700Z,2.29
2018-12-17T10:52:02.163Z,2.29
2018-12-17T10:54:31.311Z,2.22
2018-12-17T10:56:59.987Z,2.25
2018-12-17T10:59:28.505Z,2.10
2018-12-17T11:02:03.832Z,2.22
2018-12-17T11:04:34.350Z,2.20
2018-12-17T11:07:02.934Z,2.19
2018-12-17T11:09:31.341Z,2.19
2018-12-17T11:11:59.780Z,2.14
2018-12-17T11:14:28.224Z,2.13
2018-12-17T11:16:56.652Z,2.16
2018-12-17T11:19:25.142Z,2.19
2018-12-17T11:21:53.589Z,2.20
2018-12-17T11:24:22.048Z,2.11
2018-12-17T11:26:50.461Z,2.11
2018-12-17T11:29:18.903Z,2.15
2018-12-17T11:31:47.349Z,2.19
2018-12-17T11:34:15.827Z,2.18
2018-12-17T11:36:44.256Z,2.25
2018-12-17T11:39:12.684Z,2.26
2018-12-17T11:41:41.166Z,2.28
2018-12-17T11:44:09.612Z,2.27
2018-12-17T11:46:38.047Z,2.24
2018-12-17T11:49:06.530Z,2.23
2018-12-17T11:51:34.980Z,2.21
2018-12-17T11:54:03.419Z,2.20
2018-12-17T11:56:49.636Z,2.13
2018-12-17T11:59:18.064Z,2.06
2018-12-17T12:01:46.883Z,1.97
2018-12-17T12:04:15.356Z,1.93
2018-12-17T12:06:43.791Z,1.84
2018-12-17T12:09:14.249Z,1.81
2018-12-17T12:11:42.758Z,1.84
2018-12-17T12:14:11.207Z,1.89
2018-12-17T12:16:39.620Z,1.89
2018-12-17T12:19:08.098Z,1.89
2018-12-17T12:21:36.542Z,1.94
2018-12-17T12:24:05.004Z,1.98
2018-12-17T12:26:33.508Z,2.06
2018-12-17T12:29:01.973Z,2.14
2018-12-17T12:31:30.404Z,2.10
2018-12-17T12:33:58.857Z,2.08
2018-12-17T12:36:27.308Z,2.12
2018-12-17T12:38:55.728Z,2.12
2018-12-17T12:41:24.180Z,2.13
2018-12-17T12:43:52.626Z,2.08
2018-12-17T12:46:21.070Z,2.16
2018-12-17T12:48:49.544Z,2.20
2018-12-17T12:51:18.052Z,2.21
2018-12-17T12:53:46.480Z,1.57
2018-12-17T12:56:15.043Z,2.25
2018-12-17T12:58:43.464Z,2.20
2018-12-17T13:01:11.892Z,2.25
2018-12-17T13:03:40.360Z,2.28
2018-12-17T13:06:08.793Z,2.22
2018-12-17T13:08:37.376Z,2.18
2018-12-17T13:11:05.859Z,2.20
2018-12-17T13:13:34.324Z,2.19
2018-12-17T13:16:02.752Z,2.21
2018-12-17T13:18:31.232Z,2.21
2018-12-17T13:20:59.666Z,2.26
2018-12-17T13:23:28.136Z,2.22
2018-12-17T13:25:57.559Z,2.17
2018-12-17T13:28:25.991Z,2.13
2018-12-17T13:30:54.420Z,2.15
2018-12-17T13:33:22.921Z,2.13
2018-12-17T13:35:51.372Z,2.09
2018-12-17T13:38:19.842Z,2.08
2018-12-17T13:40:48.284Z,2.03
2018-12-17T13:43:16.728Z,2.02
2018-12-17T13:45:45.187Z,2.02
2018-12-17T13:48:14.169Z,2.01
2018-12-17T13:50:42.716Z,2.02
2018-12-17T13:53:16.644Z,2.02
2018-12-17T13:55:45.100Z,1.98
2018-12-17T13:58:13.524Z,1.97
2018-12-17T14:00:42.011Z,1.94
2018-12-17T14:03:10.464Z,1.94
2018-12-17T14:05:39.552Z,1.92
2018-12-17T14:08:08.016Z,1.87
2018-12-17T14:10:42.208Z,1.85
2018-12-17T14:13:10.700Z,1.86
2018-12-17T14:15:44.713Z,1.88
2018-12-17T14:18:18.785Z,1.81
2018-12-17T14:20:52.844Z,1.72
2018-12-17T14:23:21.321Z,1.67
2018-12-17T14:25:49.756Z,1.59
2018-12-17T14:28:18.349Z,1.55
2018-12-17T14:30:46.813Z,1.46
2018-12-17T14:33:15.245Z,1.39
2018-12-17T14:35:49.164Z,1.32
2018-12-17T14:38:17.601Z,1.24
2018-12-17T14:40:46.024Z,1.16
2018-12-17T14:43:14.507Z,1.10
2018-12-17T14:45:42.948Z,1.04
2018-12-17T14:48:11.433Z,0.99
2018-12-17T14:50:40.021Z,0.94
2018-12-17T14:53:08.480Z,0.90
2018-12-17T14:55:36.989Z,0.83
2018-12-17T14:58:05.627Z,0.77
2018-12-17T15:00:34.055Z,0.72
2018-12-17T15:03:02.504Z,0.64
2018-12-17T15:05:31.812Z,0.58
2018-12-17T15:08:00.332Z,0.51
2018-12-17T15:10:28.789Z,0.44
2018-12-17T15:12:57.244Z,0.39
2018-12-17T15:15:25.689Z,0.33
2018-12-17T15:17:54.148Z,0.26
2018-12-17T15:20:22.645Z,0.21
2018-12-17T15:22:51.093Z,0.16
2018-12-17T15:25:19.552Z,0.11
2018-12-17T15:27:48.063Z,0.07
2018-12-17T15:30:16.520Z,0.01
2018-12-17T15:32:44.940Z,-0.06
2018-12-17T15:35:13.398Z,-0.13
2018-12-17T15:37:41.859Z,-0.20
2018-12-17T15:40:10.324Z,-0.93
2018-12-17T15:42:41.001Z,-0.27
2018-12-17T15:45:09.288Z,-0.32
2018-12-17T15:47:37.746Z,-0.38
2018-12-17T15:50:06.472Z,-0.38
2018-12-17T15:52:34.940Z,-0.45
2018-12-17T15:55:03.794Z,-0.45
2018-12-17T15:57:32.329Z,-0.50
2018-12-17T16:00:00.891Z,-0.59
2018-12-17T16:02:29.734Z,-0.64
2018-12-17T16:04:58.251Z,-0.67
2018-12-17T16:07:27.367Z,-0.71
2018-12-17T16:09:55.888Z,-0.71
2018-12-17T16:12:24.412Z,-0.71
2018-12-17T16:14:52.877Z,-0.71
2018-12-17T16:17:21.411Z,-0.73
2018-12-17T16:19:49.925Z,-0.71
2018-12-17T16:22:18.527Z,-0.78
2018-12-17T16:24:48.440Z,-0.80
2018-12-17T16:27:19.408Z,-0.88
2018-12-17T16:29:51.705Z,-0.90
2018-12-17T16:32:20.246Z,-0.94
2018-12-17T16:34:48.801Z,-0.99
2018-12-17T16:37:18.444Z,-1.65
2018-12-17T16:39:47.028Z,-1.06
2018-12-17T16:42:15.899Z,-1.05
2018-12-17T16:44:44.696Z,-1.05
2018-12-17T16:47:13.203Z,-1.06
2018-12-17T16:49:42.009Z,-1.05
2018-12-17T16:52:10.541Z,-1.06
2018-12-17T16:54:40.122Z,-1.06
2018-12-17T16:57:09.247Z,-1.12
2018-12-17T16:59:37.825Z,-1.15
2018-12-17T17:02:06.454Z,-1.22
2018-12-17T17:04:35.062Z,-1.26
2018-12-17T17:07:03.636Z,-1.29
2018-12-17T17:09:32.515Z,-1.32
2018-12-17T17:12:01.153Z,-1.37
2018-12-17T17:14:29.763Z,-1.38
2018-12-17T17:16:58.376Z,-1.43
2018-12-17T17:19:26.938Z,-1.37
2018-12-17T17:21:55.487Z,-1.39
2018-12-17T17:24:24.105Z,-1.45
2018-12-17T17:26:53.281Z,-1.52
2018-12-17T17:29:21.796Z,-1.59
2018-12-17T17:31:50.360Z,-1.68
2018-12-17T17:34:19.008Z,-1.71
2018-12-17T17:36:47.594Z,-1.71
2018-12-17T17:39:16.131Z,-1.72
2018-12-17T17:41:44.886Z,-1.71
2018-12-17T17:44:13.448Z,-1.72
2018-12-17T17:46:41.986Z,-1.71
2018-12-17T17:49:10.588Z,-1.75
2018-12-17T17:51:39.173Z,-1.76
2018-12-17T17:54:07.732Z,-1.76
2018-12-17T17:56:36.277Z,-1.78
2018-12-17T17:59:05.410Z,-1.80
2018-12-17T18:01:33.997Z,-1.81
2018-12-17T18:04:03.062Z,-1.65
2018-12-17T18:06:31.844Z,-1.21
2018-12-17T18:09:00.436Z,-0.20
2018-12-17T18:11:29.195Z,0.42
2018-12-17T18:13:57.750Z,0.28
2018-12-17T18:16:26.324Z,-0.07
2018-12-17T18:18:54.884Z,-0.28
2018-12-17T18:21:23.425Z,-0.42
2018-12-17T18:23:52.133Z,-0.54
2018-12-17T18:26:20.692Z,-0.50
2018-12-17T18:28:49.329Z,-0.60
2018-12-17T18:31:17.873Z,-0.78
2018-12-17T18:33:46.423Z,-0.94
2018-12-17T18:36:15.000Z,-1.11
2018-12-17T18:38:43.707Z,-1.26
2018-12-17T18:41:12.761Z,-1.39
2018-12-17T18:43:42.771Z,-1.43
2018-12-17T18:46:11.424Z,-1.27
2018-12-17T18:48:40.178Z,-1.33
2018-12-17T18:51:09.660Z,-1.44
2018-12-17T18:53:38.284Z,-1.57
2018-12-17T18:56:06.904Z,-1.70
2018-12-17T18:58:35.734Z,-1.81
2018-12-17T19:01:05.441Z,-1.92
2018-12-17T19:03:35.068Z,-1.98
2018-12-17T19:06:25.987Z,-2.04
2018-12-17T19:08:57.492Z,-2.10
2018-12-17T19:14:24.089Z,-2.25
2018-12-17T19:16:52.712Z,-2.35
2018-12-17T19:19:28.850Z,-2.41
2018-12-17T19:24:52.777Z,-2.47
2018-12-17T19:27:21.409Z,-2.45
2018-12-17T19:32:46.886Z,-2.53
2018-12-17T19:35:16.515Z,-2.58
2018-12-17T19:38:05.626Z,-2.58
2018-12-17T19:40:37.540Z,-2.59
2018-12-17T19:43:07.246Z,-2.61
2018-12-17T19:45:36.500Z,-2.63
2018-12-17T19:48:05.598Z,-2.65
2018-12-17T19:50:35.053Z,-2.63
2018-12-17T19:53:04.167Z,-2.63
2018-12-17T19:55:32.745Z,-2.63
2018-12-17T19:58:01.419Z,-2.67
2018-12-17T20:00:30.000Z,-2.69
2018-12-17T20:03:13.750Z,-2.68
2018-12-17T20:05:47.617Z,-2.70
2018-12-17T20:08:18.835Z,-2.73
2018-12-17T20:10:50.199Z,-2.77
2018-12-17T20:13:22.626Z,-2.75
2018-12-17T20:15:52.625Z,-2.78
2018-12-17T20:18:22.167Z,-2.83
2018-12-17T20:20:54.934Z,-2.84
2018-12-17T20:23:35.435Z,-2.89
2018-12-17T20:26:04.756Z,-2.92
2018-12-17T20:28:35.151Z,-2.95
2018-12-17T20:31:22.480Z,-3.02
2018-12-17T20:33:51.771Z,-3.05
2018-12-17T20:36:22.323Z,-3.08
2018-12-17T20:38:56.770Z,-3.05
2018-12-17T20:41:26.335Z,-3.05
2018-12-17T20:43:55.890Z,-3.07
2018-12-17T20:49:11.326Z,-3.06
2018-12-17T20:51:40.917Z,-3.11
2018-12-17T20:54:12.677Z,-3.22
2018-12-17T20:56:43.631Z,-3.29
2018-12-17T20:59:16.601Z,-3.28
2018-12-17T21:02:03.878Z,-3.28
2018-12-17T21:04:51.025Z,-3.20
2018-12-17T21:07:22.861Z,-3.08
2018-12-17T21:09:58.885Z,-3.03
2018-12-17T21:12:29.831Z,-3.03
2018-12-17T21:15:03.849Z,-3.05
2018-12-17T21:17:49.741Z,-3.07
2018-12-17T21:23:12.853Z,-3.08
2018-12-17T21:25:41.427Z,-3.06
2018-12-17T21:28:17.086Z,-3.13
2018-12-17T21:30:48.906Z,-3.09
2018-12-17T21:33:20.308Z,-3.11
2018-12-17T21:35:51.201Z,-3.14
2018-12-17T21:38:22.609Z,-3.17
2018-12-17T21:40:52.886Z,-3.21
2018-12-17T21:43:22.867Z,-3.25
2018-12-17T21:46:11.673Z,-3.27
2018-12-17T21:48:41.202Z,-3.31
2018-12-17T21:51:10.069Z,-3.33
2018-12-17T21:53:57.930Z,-3.37
2018-12-17T21:56:32.505Z,-3.32
2018-12-17T21:59:06.317Z,-3.28
2018-12-17T22:01:42.804Z,-3.29
2018-12-17T22:04:31.685Z,-3.29
2018-12-17T22:07:00.509Z,-3.36
2018-12-17T22:09:45.104Z,-3.39
2018-12-17T22:12:14.865Z,-3.32
2018-12-17T22:14:44.141Z,-3.27
2018-12-17T22:17:17.957Z,-3.29
2018-12-17T22:20:08.878Z,-3.24
2018-12-17T22:22:42.724Z,-3.24
2018-12-17T22:25:16.676Z,-3.22
2018-12-17T22:27:50.485Z,-3.25
2018-12-17T22:30:31.655Z,-3.32
2018-12-17T22:33:00.117Z,-3.38
2018-12-17T22:35:32.280Z,-3.42
2018-12-17T22:38:06.087Z,-3.47
2018-12-17T22:40:39.019Z,-3.54
2018-12-17T22:43:12.880Z,-3.53
2018-12-17T22:45:41.358Z,-3.58
2018-12-17T22:48:28.946Z,-3.62
2018-12-17T22:51:20.538Z,-3.68
2018-12-17T22:53:53.895Z,-3.69
2018-12-17T22:56:28.642Z,-3.67
2018-12-17T22:58:57.565Z,-3.65
2018-12-17T23:04:19.825Z,-3.63
2018-12-17T23:06:54.259Z,-3.65
2018-12-17T23:09:46.005Z,-3.65
2018-12-17T23:12:32.803Z,-3.67
2018-12-17T23:15:30.783Z,-3.69
2018-12-17T23:18:10.304Z,-3.70
2018-12-17T23:20:45.164Z,-3.67
2018-12-17T23:23:16.331Z,-3.66
2018-12-17T23:25:46.152Z,-3.69
2018-12-17T23:28:17.097Z,-3.73
2018-12-17T23:30:50.067Z,-3.78
2018-12-17T23:33:19.602Z,-3.82
2018-12-17T23:35:49.605Z,-3.58
2018-12-17T23:41:12.233Z,-3.63
2018-12-17T23:43:57.591Z,-3.64
2018-12-17T23:46:26.598Z,-3.70
2018-12-17T23:48:55.286Z,-3.82
2018-12-17T23:51:23.751Z,-3.86
2018-12-17T23:53:53.769Z,-3.90
2018-12-17T23:59:16.055Z,-3.98
